createdAt,value
2022-10-05T02:58:17.771Z,86.00
2022-10-05T03:28:28.024Z,84.80
2022-10-05T03:58:37.120Z,86.73
2022-10-05T04:28:48.832Z,85.09
2022-10-05T04:59:11.348Z,86.23
2022-10-05T05:29:19.660Z,87.50
2022-10-05T05:59:27.545Z,87.65
2022-10-05T06:29:44.632Z,86.96
2022-10-05T06:59:51.831Z,86.27
2022-10-05T07:30:00.995Z,84.54
2022-10-05T08:00:07.395Z,80.35
2022-10-05T08:30:12.691Z,76.75
2022-10-05T09:00:20.098Z,77.45
2022-10-05T09:30:44.985Z,67.67
2022-10-05T10:01:10.010Z,52.21
2022-10-05T10:31:32.924Z,59.66
2022-10-05T11:01:41.317Z,46.71
2022-10-05T11:32:05.299Z,43.02
2022-10-05T12:02:27.212Z,42.37
2022-10-05T12:32:35.464Z,40.76
2022-10-05T13:02:43.249Z,40.27
2022-10-05T13:32:48.750Z,42.00
2022-10-05T14:02:54.397Z,40.59
2022-10-05T14:33:00.559Z,48.99
2022-10-05T15:03:18.766Z,49.40
2022-10-05T15:33:28.690Z,47.70
2022-10-05T16:03:41.412Z,63.33
2022-10-05T16:33:56.365Z,67.53
2022-10-05T17:04:10.157Z,70.89
2022-10-05T17:34:34.244Z,72.91
2022-10-05T18:04:42.326Z,74.11
2022-10-05T18:34:50.780Z,74.88
2022-10-05T19:05:23.577Z,76.27
2022-10-05T19:35:34.623Z,77.66
2022-10-05T20:05:38.790Z,74.46
2022-10-05T20:35:42.921Z,74.77
2022-10-05T21:05:47.441Z,75.69
2022-10-05T21:35:51.594Z,74.42
2022-10-05T22:05:55.855Z,73.19
2022-10-05T22:36:00.513Z,74.43
2022-10-05T23:06:06.314Z,74.93
2022-10-05T23:36:13.370Z,74.89
